createdAt,value
2022-10-05T00:01:21.062Z,2.00
2022-10-05T00:03:48.259Z,2.40
2022-10-05T00:06:15.510Z,1.80
2022-10-05T00:08:42.409Z,2.80
2022-10-05T00:11:09.593Z,2.40
2022-10-05T00:13:36.490Z,2.10
2022-10-05T00:16:17.079Z,2.30
2022-10-05T00:18:51.924Z,2.10
2022-10-05T00:21:23.185Z,2.50
2022-10-05T00:23:50.475Z,2.00
2022-10-05T00:26:22.127Z,2.20
2022-10-05T00:28:49.343Z,2.30
2022-10-05T00:31:24.314Z,2.30
2022-10-05T00:33:51.649Z,2.10
2022-10-05T00:36:18.779Z,2.70
2022-10-05T00:38:45.826Z,2.30
2022-10-05T00:41:18.753Z,2.00
2022-10-05T00:44:04.142Z,2.60
2022-10-05T00:46:57.662Z,2.20
2022-10-05T00:49:46.457Z,2.50
2022-10-05T00:52:28.783Z,1.90
2022-10-05T00:55:19.729Z,2.50
2022-10-05T00:57:59.426Z,2.40
2022-10-05T01:00:26.461Z,2.50
2022-10-05T01:03:22.170Z,2.50
2022-10-05T01:05:58.653Z,1.90
2022-10-05T01:08:50.828Z,2.20
2022-10-05T01:11:28.384Z,2.40
2022-10-05T01:14:22.618Z,2.60
2022-10-05T01:16:52.130Z,2.70
2022-10-05T01:19:44.365Z,2.40
2022-10-05T01:22:52.481Z,2.10
2022-10-05T01:25:47.678Z,2.30
2022-10-05T01:28:18.866Z,2.20
2022-10-05T01:31:09.002Z,2.30
2022-10-05T01:33:48.761Z,1.80
2022-10-05T01:36:28.895Z,1.70
2022-10-05T01:39:17.559Z,2.00
2022-10-05T01:42:18.160Z,2.30
2022-10-05T01:44:51.693Z,2.30
2022-10-05T01:47:46.074Z,1.90
2022-10-05T01:50:28.954Z,1.90
2022-10-05T01:55:32.337Z,2.20
2022-10-05T01:58:04.062Z,2.00
2022-10-05T02:00:33.405Z,2.40
2022-10-05T02:03:05.072Z,1.50
2022-10-05T02:05:41.421Z,2.10
2022-10-05T02:08:37.424Z,1.90
2022-10-05T02:11:09.190Z,2.30
2022-10-05T02:13:58.953Z,2.70
2022-10-05T02:16:33.615Z,2.50
2022-10-05T02:19:14.824Z,1.90
2022-10-05T02:21:45.010Z,1.90
2022-10-05T02:24:19.270Z,2.20
2022-10-05T02:26:46.407Z,2.40
2022-10-05T02:29:13.618Z,2.00
2022-10-05T02:31:46.158Z,1.70
2022-10-05T02:34:30.028Z,2.10
2022-10-05T02:37:34.524Z,2.00
2022-10-05T02:40:14.302Z,1.80
2022-10-05T02:43:00.521Z,2.50
2022-10-05T02:45:30.849Z,1.90
2022-10-05T02:48:11.519Z,1.70
2022-10-05T02:51:01.666Z,2.00
2022-10-05T02:53:37.193Z,2.20
2022-10-05T02:56:28.844Z,2.10
2022-10-05T02:59:21.828Z,2.10
2022-10-05T03:01:50.961Z,1.70
2022-10-05T03:04:34.426Z,1.50
2022-10-05T03:07:18.263Z,1.60
2022-10-05T03:12:20.425Z,2.10
2022-10-05T03:14:56.781Z,1.80
2022-10-05T03:17:31.068Z,2.10
2022-10-05T03:20:26.343Z,1.80
2022-10-05T03:22:58.818Z,2.10
2022-10-05T03:25:47.775Z,2.20
2022-10-05T03:28:31.879Z,2.40
2022-10-05T03:31:03.626Z,2.20
2022-10-05T03:33:37.979Z,2.20
2022-10-05T03:39:09.565Z,1.90
2022-10-05T03:41:59.932Z,2.20
2022-10-05T03:45:09.096Z,2.30
2022-10-05T03:47:45.872Z,1.50
2022-10-05T03:50:52.041Z,2.10
2022-10-05T03:53:21.033Z,2.00
2022-10-05T03:55:48.897Z,2.60
2022-10-05T03:58:32.019Z,2.60
2022-10-05T04:01:02.462Z,3.00
2022-10-05T04:03:41.370Z,2.60
2022-10-05T04:06:13.684Z,2.60
2022-10-05T04:08:47.782Z,3.10
2022-10-05T04:11:21.799Z,3.30
2022-10-05T04:14:01.508Z,2.90
2022-10-05T04:16:34.961Z,2.90
2022-10-05T04:21:49.232Z,2.90
2022-10-05T04:24:34.959Z,3.10
2022-10-05T04:27:15.129Z,3.60
2022-10-05T04:29:53.939Z,2.30
2022-10-05T04:32:42.506Z,3.00
2022-10-05T04:35:16.191Z,3.60
2022-10-05T04:37:58.395Z,3.50
2022-10-05T04:40:37.832Z,3.30
2022-10-05T04:43:30.085Z,2.60
2022-10-05T04:46:25.640Z,2.70
2022-10-05T04:49:19.078Z,3.40
2022-10-05T04:55:05.272Z,3.30
2022-10-05T04:58:17.074Z,2.30
2022-10-05T05:01:02.369Z,2.50
2022-10-05T05:04:00.651Z,3.10
2022-10-05T05:06:37.441Z,3.20
2022-10-05T05:09:35.686Z,2.20
2022-10-05T05:12:09.481Z,2.50
2022-10-05T05:14:59.215Z,2.90
2022-10-05T05:17:47.532Z,3.50
2022-10-05T05:20:28.206Z,3.80
2022-10-05T05:23:07.708Z,2.70
2022-10-05T05:25:44.386Z,3.10
2022-10-05T05:28:34.032Z,3.00
2022-10-05T05:31:10.463Z,3.30
2022-10-05T05:34:03.511Z,3.40
2022-10-05T05:36:49.213Z,2.70
2022-10-05T05:39:29.685Z,2.70
2022-10-05T05:42:00.554Z,2.70
2022-10-05T05:44:33.278Z,2.60
2022-10-05T05:47:05.432Z,3.00
2022-10-05T05:50:01.783Z,2.30
2022-10-05T05:52:45.488Z,3.10
2022-10-05T05:55:34.484Z,2.40
2022-10-05T05:58:17.189Z,3.10
2022-10-05T06:01:20.301Z,2.70
2022-10-05T06:03:59.996Z,2.90
2022-10-05T06:06:30.778Z,2.00
2022-10-05T06:09:00.831Z,2.60
2022-10-05T06:12:23.711Z,2.70
2022-10-05T06:14:53.486Z,2.00
2022-10-05T06:17:39.439Z,2.60
2022-10-05T06:20:14.129Z,2.70
2022-10-05T06:22:42.823Z,2.60
2022-10-05T06:25:17.234Z,2.10
2022-10-05T06:28:09.767Z,2.40
2022-10-05T06:31:33.303Z,2.40
2022-10-05T06:34:19.522Z,2.00
2022-10-05T06:36:51.634Z,2.30
2022-10-05T06:39:44.264Z,2.40
2022-10-05T06:42:23.603Z,1.90
2022-10-05T06:45:54.310Z,2.60
2022-10-05T06:48:53.950Z,2.20
2022-10-05T06:52:27.733Z,2.30
2022-10-05T06:55:18.464Z,2.30
2022-10-05T06:58:15.334Z,2.10
2022-10-05T07:01:04.445Z,2.10
2022-10-05T07:03:44.270Z,2.10
2022-10-05T07:06:34.599Z,2.00
2022-10-05T07:09:08.833Z,1.40
2022-10-05T07:11:41.754Z,1.50
2022-10-05T07:14:31.510Z,1.70
2022-10-05T07:17:08.681Z,1.60
2022-10-05T07:20:22.522Z,1.90
2022-10-05T07:23:14.519Z,1.60
2022-10-05T07:25:46.826Z,1.50
2022-10-05T07:28:41.482Z,1.40
2022-10-05T07:31:24.852Z,1.00
2022-10-05T07:34:09.963Z,1.00
2022-10-05T07:37:02.572Z,1.10
2022-10-05T07:40:00.442Z,1.20
2022-10-05T07:42:44.564Z,1.30
2022-10-05T07:45:24.934Z,1.20
2022-10-05T07:47:55.336Z,1.40
2022-10-05T07:50:30.001Z,1.10
2022-10-05T07:53:07.192Z,1.20
2022-10-05T07:55:37.109Z,1.30
2022-10-05T07:58:23.710Z,1.60
2022-10-05T08:01:17.175Z,1.10
2022-10-05T08:04:11.357Z,1.10
2022-10-05T08:06:51.274Z,0.90
2022-10-05T08:09:33.903Z,1.10
2022-10-05T08:12:24.106Z,1.10
2022-10-05T08:15:03.558Z,1.20
2022-10-05T08:17:46.260Z,0.80
2022-10-05T08:20:37.842Z,1.00
2022-10-05T08:23:10.984Z,0.90
2022-10-05T08:26:05.570Z,1.30
2022-10-05T08:28:38.954Z,0.80
2022-10-05T08:31:06.273Z,0.90
2022-10-05T08:34:00.070Z,0.80
2022-10-05T08:36:39.561Z,0.60
2022-10-05T08:39:12.625Z,1.00
2022-10-05T08:41:54.986Z,1.20
2022-10-05T08:45:03.477Z,1.00
2022-10-05T08:47:52.510Z,0.80
2022-10-05T08:50:35.050Z,1.20
2022-10-05T08:53:12.471Z,0.90
2022-10-05T08:56:19.718Z,1.00
2022-10-05T08:59:09.132Z,1.00
2022-10-05T09:02:01.305Z,0.90
2022-10-05T09:04:50.476Z,0.90
2022-10-05T09:07:38.817Z,0.90
2022-10-05T09:10:41.504Z,0.70
2022-10-05T09:13:24.425Z,1.00
2022-10-05T09:16:03.956Z,0.90
2022-10-05T09:18:53.082Z,0.70
2022-10-05T09:22:02.471Z,1.00
2022-10-05T09:25:02.082Z,0.90
2022-10-05T09:27:37.214Z,0.70
2022-10-05T09:30:19.523Z,1.00
2022-10-05T09:33:08.171Z,0.70
2022-10-05T09:36:05.483Z,0.60
2022-10-05T09:39:10.602Z,0.60
2022-10-05T09:42:15.610Z,0.80
2022-10-05T09:45:01.823Z,1.00
2022-10-05T09:48:00.096Z,0.70
2022-10-05T09:50:48.642Z,0.50
2022-10-05T09:53:40.724Z,0.70
2022-10-05T09:56:21.520Z,0.70
2022-10-05T09:59:16.437Z,0.80
2022-10-05T10:01:57.763Z,0.80
2022-10-05T10:05:06.032Z,0.50
2022-10-05T10:07:48.852Z,0.90
2022-10-05T10:10:15.897Z,0.80
2022-10-05T10:12:45.930Z,1.90
2022-10-05T10:15:28.551Z,0.70
2022-10-05T10:18:11.401Z,0.70
2022-10-05T10:20:53.169Z,0.90
2022-10-05T10:23:26.547Z,0.80
2022-10-05T10:28:54.351Z,0.70
2022-10-05T10:32:12.929Z,0.70
2022-10-05T10:34:42.745Z,0.90
2022-10-05T10:37:34.824Z,1.20
2022-10-05T10:40:20.812Z,1.10
2022-10-05T10:43:06.306Z,1.10
2022-10-05T10:45:54.031Z,0.90
2022-10-05T10:48:30.148Z,0.80
2022-10-05T10:51:06.348Z,0.80
2022-10-05T10:53:57.866Z,0.80
2022-10-05T10:56:47.594Z,1.10
2022-10-05T10:59:30.743Z,1.10
2022-10-05T11:02:20.036Z,1.10
2022-10-05T11:04:56.509Z,1.00
2022-10-05T11:07:26.363Z,0.90
2022-10-05T11:10:12.415Z,1.00
2022-10-05T11:12:54.720Z,0.90
2022-10-05T11:15:49.606Z,1.20
2022-10-05T11:18:20.656Z,0.80
2022-10-05T11:21:11.997Z,1.00
2022-10-05T11:23:48.654Z,0.90
2022-10-05T11:26:37.560Z,1.30
2022-10-05T11:29:41.733Z,1.00
2022-10-05T11:32:34.585Z,1.40
2022-10-05T11:35:20.680Z,1.00
2022-10-05T11:38:12.507Z,1.10
2022-10-05T11:41:02.492Z,1.20
2022-10-05T11:43:37.505Z,1.10
2022-10-05T11:46:08.995Z,1.00
2022-10-05T11:48:51.484Z,1.20
2022-10-05T11:51:27.801Z,1.10
2022-10-05T11:54:19.099Z,1.30
2022-10-05T11:57:08.242Z,1.50
2022-10-05T11:59:41.614Z,1.50
2022-10-05T12:05:11.560Z,1.60
2022-10-05T12:08:03.188Z,1.40
2022-10-05T12:11:08.250Z,1.20
2022-10-05T12:13:40.629Z,1.50
2022-10-05T12:16:22.898Z,1.30
2022-10-05T12:19:18.931Z,1.80
2022-10-05T12:22:04.382Z,1.60
2022-10-05T12:24:37.344Z,1.80
2022-10-05T12:27:24.508Z,1.50
2022-10-05T12:29:57.497Z,1.70
2022-10-05T12:33:02.180Z,1.70
2022-10-05T12:35:49.453Z,1.50
2022-10-05T12:38:41.211Z,1.50
2022-10-05T12:41:14.793Z,1.70
2022-10-05T12:43:50.942Z,1.80
2022-10-05T12:46:49.806Z,1.90
2022-10-05T12:49:29.120Z,1.70
2022-10-05T12:52:04.631Z,2.20
2022-10-05T12:54:48.555Z,1.60
2022-10-05T12:57:45.544Z,1.70
2022-10-05T13:00:22.464Z,1.60
2022-10-05T13:03:25.516Z,1.70
2022-10-05T13:06:02.613Z,1.70
2022-10-05T13:08:39.163Z,1.50
2022-10-05T13:11:17.164Z,1.60
2022-10-05T13:13:59.549Z,1.50
2022-10-05T13:16:32.550Z,1.40
2022-10-05T13:19:32.331Z,1.50
2022-10-05T13:22:20.995Z,2.00
2022-10-05T13:25:00.327Z,1.30
2022-10-05T13:27:30.043Z,1.60
2022-10-05T13:30:16.235Z,1.50
2022-10-05T13:32:46.687Z,1.60
2022-10-05T13:35:18.830Z,1.60
2022-10-05T13:38:11.824Z,1.70
2022-10-05T13:40:45.175Z,1.70
2022-10-05T13:43:50.322Z,1.80
2022-10-05T13:46:47.368Z,1.90
2022-10-05T13:49:22.280Z,2.00
2022-10-05T13:52:01.603Z,1.60
2022-10-05T13:54:52.858Z,1.90
2022-10-05T13:58:07.923Z,1.80
2022-10-05T14:00:41.781Z,2.00
2022-10-05T14:03:30.405Z,1.70
2022-10-05T14:05:59.436Z,1.70
2022-10-05T14:08:36.412Z,2.50
2022-10-05T14:11:21.476Z,1.80
2022-10-05T14:13:48.583Z,2.00
2022-10-05T14:16:23.710Z,1.80
2022-10-05T14:18:59.771Z,2.30
2022-10-05T14:21:29.729Z,1.70
2022-10-05T14:23:59.813Z,1.80
2022-10-05T14:26:27.581Z,1.80
2022-10-05T14:29:20.842Z,1.40
2022-10-05T14:32:00.247Z,1.70
2022-10-05T14:34:35.134Z,1.80
2022-10-05T14:37:23.360Z,1.20
2022-10-05T14:39:52.072Z,1.40
2022-10-05T14:42:20.443Z,1.70
2022-10-05T14:44:59.531Z,1.70
2022-10-05T14:47:30.472Z,1.90
2022-10-05T14:50:14.232Z,1.60
2022-10-05T14:52:51.667Z,1.80
2022-10-05T14:55:38.006Z,2.10
2022-10-05T14:58:17.365Z,1.80
2022-10-05T15:01:13.948Z,1.30
2022-10-05T15:03:48.813Z,1.50
2022-10-05T15:06:33.677Z,1.50
2022-10-05T15:09:17.464Z,1.70
2022-10-05T15:11:58.701Z,0.80
2022-10-05T15:14:34.767Z,1.10
2022-10-05T15:17:03.608Z,1.50
2022-10-05T15:19:36.986Z,1.20
2022-10-05T15:24:44.247Z,2.60
2022-10-05T15:27:18.035Z,2.70
2022-10-05T15:29:55.791Z,2.60
2022-10-05T15:32:45.019Z,2.50
2022-10-05T15:35:38.906Z,2.50
2022-10-05T15:38:26.764Z,2.20
2022-10-05T15:41:38.588Z,1.90
2022-10-05T15:44:15.116Z,1.80
2022-10-05T15:46:56.658Z,2.30
2022-10-05T15:49:39.502Z,2.20
2022-10-05T15:52:24.168Z,1.50
2022-10-05T15:55:25.209Z,2.10
2022-10-05T15:58:17.757Z,2.80
2022-10-05T16:00:47.777Z,2.20
2022-10-05T16:03:40.908Z,3.30
2022-10-05T16:06:43.743Z,2.20
2022-10-05T16:09:18.149Z,2.30
2022-10-05T16:12:03.450Z,2.40
2022-10-05T16:15:08.984Z,2.40
2022-10-05T16:17:55.521Z,2.40
2022-10-05T16:20:26.083Z,2.70
2022-10-05T16:22:59.830Z,2.60
2022-10-05T16:26:00.986Z,2.10
2022-10-05T16:28:47.686Z,3.10
2022-10-05T16:31:37.639Z,2.90
2022-10-05T16:34:11.169Z,3.40
2022-10-05T16:36:58.969Z,3.10
2022-10-05T16:39:41.374Z,3.00
2022-10-05T16:42:28.913Z,3.10
2022-10-05T16:45:01.357Z,2.60
2022-10-05T16:47:59.253Z,2.10
2022-10-05T16:50:43.383Z,2.20
2022-10-05T16:53:23.482Z,2.00
2022-10-05T16:55:57.463Z,1.80
2022-10-05T16:58:31.482Z,2.00
2022-10-05T17:01:20.078Z,2.20
2022-10-05T17:04:06.015Z,1.70
2022-10-05T17:06:37.400Z,1.60
2022-10-05T17:09:19.766Z,2.20
2022-10-05T17:12:11.084Z,2.10
2022-10-05T17:14:49.606Z,2.10
2022-10-05T17:17:33.338Z,1.80
2022-10-05T17:22:28.667Z,2.10
2022-10-05T17:25:18.437Z,1.20
2022-10-05T17:27:56.403Z,1.60
2022-10-05T17:30:29.636Z,2.00
2022-10-05T17:33:11.970Z,2.20
2022-10-05T17:35:52.207Z,1.90
2022-10-05T17:38:23.755Z,2.20
2022-10-05T17:41:00.540Z,2.70
2022-10-05T17:43:31.574Z,1.60
2022-10-05T17:46:00.797Z,2.50
2022-10-05T17:48:38.059Z,2.40
2022-10-05T17:51:36.378Z,2.50
2022-10-05T17:54:39.547Z,2.10
2022-10-05T17:57:06.680Z,2.80
2022-10-05T17:59:44.806Z,2.30
2022-10-05T18:02:22.236Z,2.70
2022-10-05T18:05:05.093Z,3.20
2022-10-05T18:07:33.612Z,2.90
2022-10-05T18:10:09.958Z,3.20
2022-10-05T18:12:47.337Z,3.70
2022-10-05T18:15:21.439Z,3.50
2022-10-05T18:18:19.110Z,2.80
2022-10-05T18:21:14.369Z,3.50
2022-10-05T18:24:02.468Z,2.90
2022-10-05T18:26:44.848Z,3.10
2022-10-05T18:30:00.378Z,3.00
2022-10-05T18:32:50.025Z,2.90
2022-10-05T18:35:48.321Z,2.10
2022-10-05T18:38:31.456Z,2.80
2022-10-05T18:41:27.146Z,3.40
2022-10-05T18:44:06.492Z,2.70
2022-10-05T18:46:46.118Z,2.80
2022-10-05T18:49:38.317Z,3.00
2022-10-05T18:52:10.826Z,2.60
2022-10-05T18:54:56.851Z,2.90
2022-10-05T18:57:47.174Z,3.00
2022-10-05T19:00:19.289Z,3.40
2022-10-05T19:02:58.728Z,2.80
2022-10-05T19:05:47.522Z,2.00
2022-10-05T19:08:15.551Z,2.60
2022-10-05T19:11:06.068Z,2.60
2022-10-05T19:14:11.599Z,3.00
2022-10-05T19:16:52.270Z,2.60
2022-10-05T19:19:44.023Z,2.30
2022-10-05T19:22:23.536Z,2.00
2022-10-05T19:25:26.379Z,2.50
2022-10-05T19:28:15.656Z,2.70
2022-10-05T19:30:52.370Z,2.30
2022-10-05T19:33:26.473Z,2.70
2022-10-05T19:36:24.731Z,2.70
2022-10-05T19:38:57.829Z,2.40
2022-10-05T19:41:56.330Z,2.40
2022-10-05T19:44:32.595Z,3.00
2022-10-05T19:47:17.865Z,2.70
2022-10-05T19:49:56.997Z,2.30
2022-10-05T19:52:47.542Z,2.60
2022-10-05T19:55:26.373Z,2.20
2022-10-05T19:57:55.103Z,2.90
2022-10-05T20:00:27.578Z,2.40
2022-10-05T20:03:12.509Z,2.80
2022-10-05T20:05:39.822Z,2.60
2022-10-05T20:08:07.470Z,2.40
2022-10-05T20:10:34.615Z,2.00
2022-10-05T20:13:05.169Z,2.40
2022-10-05T20:15:52.388Z,2.60
2022-10-05T20:19:10.713Z,3.20
2022-10-05T20:21:42.289Z,2.30
2022-10-05T20:24:20.488Z,3.00
2022-10-05T20:27:06.940Z,1.90
2022-10-05T20:29:38.731Z,2.60
2022-10-05T20:32:18.024Z,2.80
2022-10-05T20:34:46.682Z,2.60
2022-10-05T20:37:15.682Z,2.20
2022-10-05T20:39:43.100Z,2.90
2022-10-05T20:42:10.255Z,2.70
2022-10-05T20:44:37.535Z,2.10
2022-10-05T20:47:05.835Z,1.60
2022-10-05T20:49:34.567Z,2.70
2022-10-05T20:52:01.618Z,2.10
2022-10-05T20:54:28.869Z,2.40
2022-10-05T20:56:55.959Z,2.40
2022-10-05T20:59:24.189Z,2.50
2022-10-05T21:01:51.580Z,1.90
2022-10-05T21:04:23.301Z,1.70
2022-10-05T21:06:50.492Z,2.30
2022-10-05T21:09:19.678Z,2.20
2022-10-05T21:11:47.540Z,2.10
2022-10-05T21:14:14.668Z,1.80
2022-10-05T21:16:43.090Z,1.80
2022-10-05T21:19:12.296Z,1.80
2022-10-05T21:21:40.517Z,2.20
2022-10-05T21:24:08.283Z,2.10
2022-10-05T21:26:35.222Z,2.10
2022-10-05T21:29:02.785Z,2.10
2022-10-05T21:31:29.971Z,1.80
2022-10-05T21:33:57.392Z,1.70
2022-10-05T21:36:24.837Z,1.90
2022-10-05T21:38:53.123Z,1.90
2022-10-05T21:41:20.751Z,1.90
2022-10-05T21:43:47.938Z,1.90
2022-10-05T21:46:20.401Z,1.90
2022-10-05T21:48:47.678Z,1.50
2022-10-05T21:51:16.862Z,1.30
2022-10-05T21:53:51.165Z,2.00
2022-10-05T21:56:19.402Z,1.70
2022-10-05T21:58:46.502Z,1.90
2022-10-05T22:01:15.934Z,1.60
2022-10-05T22:03:45.273Z,1.80
2022-10-05T22:06:12.558Z,1.70
2022-10-05T22:08:39.707Z,1.50
2022-10-05T22:11:15.408Z,1.30
2022-10-05T22:13:50.189Z,1.60
2022-10-05T22:16:18.609Z,1.70
2022-10-05T22:18:45.818Z,1.40
2022-10-05T22:21:13.378Z,1.60
2022-10-05T22:23:41.287Z,1.60
2022-10-05T22:26:09.213Z,1.40
2022-10-05T22:28:36.903Z,1.80
2022-10-05T22:31:04.972Z,1.60
2022-10-05T22:33:32.132Z,1.40
2022-10-05T22:35:59.758Z,1.70
2022-10-05T22:38:27.032Z,1.40
2022-10-05T22:40:54.356Z,1.80
2022-10-05T22:43:21.387Z,1.50
2022-10-05T22:45:48.381Z,1.80
2022-10-05T22:48:16.230Z,1.80
2022-10-05T22:50:46.891Z,1.50
2022-10-05T22:53:14.106Z,1.70
2022-10-05T22:55:41.259Z,1.70
2022-10-05T22:58:08.313Z,1.70
2022-10-05T23:00:57.059Z,1.20
2022-10-05T23:03:22.366Z,1.50
2022-10-05T23:05:58.604Z,1.90
2022-10-05T23:08:25.932Z,1.80
2022-10-05T23:10:53.346Z,1.70
2022-10-05T23:13:22.741Z,2.00
2022-10-05T23:15:50.095Z,1.60
2022-10-05T23:18:17.351Z,1.50
2022-10-05T23:20:44.326Z,1.40
2022-10-05T23:23:11.335Z,1.60
2022-10-05T23:25:38.389Z,1.60
2022-10-05T23:28:05.492Z,1.70
2022-10-05T23:30:32.650Z,1.70
2022-10-05T23:32:59.839Z,1.30
2022-10-05T23:35:26.982Z,1.50
2022-10-05T23:37:54.080Z,1.50
2022-10-05T23:40:21.296Z,1.80
2022-10-05T23:42:48.475Z,1.50
2022-10-05T23:45:16.504Z,1.80
2022-10-05T23:47:43.551Z,1.50
2022-10-05T23:50:10.735Z,1.50
2022-10-05T23:52:37.856Z,1.30
2022-10-05T23:55:05.867Z,1.50
2022-10-05T23:57:32.897Z,1.60
